Time;durP1;ratioP1;P1;durP2;ratioP2;P2;SDS_P1;SDS_P2;PMS_P1;PMS_P2;Temp;Humidity;BMP_temperature;BMP_pressure;BME280_temperature;BME280_humidity;BME280_pressure;Samples;Min_cycle;Max_cycle;Signal;HPM_P1;HPM_P2
2021/11/27 00:01:45;;;;;;;8.88;8.32;;;7.20;99.90;;;;;;4104853;28;20049;-51
2021/11/27 00:03:48;;;;;;;7.35;7.15;;;7.20;99.90;;;;;;4103730;28;20048;-50
2021/11/27 00:05:52;;;;;;;6.43;6.28;;;7.20;99.90;;;;;;4106193;28;20509;-51
2021/11/27 00:07:54;;;;;;;7.25;7.10;;;7.20;99.90;;;;;;4103901;28;20098;-51
2021/11/27 00:09:56;;;;;;;;;;;7.20;99.90;;;;;;4106504;28;20550;-51
2021/11/27 00:11:58;;;;;;;5.90;5.80;;;7.20;99.90;;;;;;4098349;28;19968;-51
2021/11/27 00:14:01;;;;;;;6.85;6.65;;;7.10;99.90;;;;;;4106068;28;20743;-49
2021/11/27 00:16:03;;;;;;;6.00;5.90;;;7.20;99.90;;;;;;4105182;28;20063;-50
2021/11/27 00:18:06;;;;;;;;;;;7.20;99.90;;;;;;4105014;28;20091;-51
2021/11/27 00:20:12;;;;;;;6.10;5.90;;;7.20;99.90;;;;;;4102598;28;19988;-51
2021/11/27 00:22:15;;;;;;;7.47;7.07;;;7.20;99.90;;;;;;4106780;28;20577;-49
2021/11/27 00:24:17;;;;;;;5.85;5.75;;;7.20;99.90;;;;;;4112174;28;20035;-51
2021/11/27 00:26:20;;;;;;;5.20;4.90;;;7.20;99.90;;;;;;4103740;28;20043;-51
2021/11/27 00:28:23;;;;;;;5.38;5.28;;;7.30;99.90;;;;;;4099222;28;20074;-50
2021/11/27 00:30:27;;;;;;;;;;;7.20;99.90;;;;;;4104977;28;20039;-52
2021/11/27 00:32:29;;;;;;;5.25;5.15;;;7.30;99.90;;;;;;4104326;28;20343;-51
2021/11/27 00:34:32;;;;;;;5.22;5.03;;;7.30;99.90;;;;;;4107240;28;20126;-49
2021/11/27 00:36:37;;;;;;;5.05;4.95;;;7.30;99.90;;;;;;4112128;28;21184;-51
2021/11/27 00:38:40;;;;;;;5.78;5.47;;;7.30;99.90;;;;;;4106050;28;20035;-48
2021/11/27 00:40:43;;;;;;;4.97;4.93;;;7.30;99.90;;;;;;4112157;28;20097;-49
2021/11/27 00:42:46;;;;;;;5.45;5.35;;;7.40;99.90;;;;;;4103182;28;20580;-51
2021/11/27 00:44:48;;;;;;;;;;;7.40;99.90;;;;;;4105718;28;20462;-49
2021/11/27 00:46:50;;;;;;;5.80;5.60;;;7.40;99.90;;;;;;4103494;28;20460;-50
2021/11/27 00:48:53;;;;;;;5.45;5.35;;;7.40;99.90;;;;;;4103091;28;20066;-51
2021/11/27 00:51:11;;;;;;;5.75;5.65;;;7.40;99.90;;;;;;4106090;28;20154;-50
2021/11/27 00:53:13;;;;;;;4.60;4.50;;;7.30;99.90;;;;;;4102757;28;20068;-51
2021/11/27 00:55:16;;;;;;;4.78;4.45;;;7.30;99.90;;;;;;4107984;28;20446;-50
2021/11/27 00:57:18;;;;;;;5.10;4.72;;;7.30;99.90;;;;;;4108886;28;20035;-51
2021/11/27 00:59:20;;;;;;;5.18;4.95;;;7.30;99.90;;;;;;4108860;28;20074;-50
2021/11/27 01:01:28;;;;;;;6.28;5.85;;;7.30;99.90;;;;;;4104880;28;20047;-51
2021/11/27 01:03:32;;;;;;;5.60;5.13;;;7.20;99.90;;;;;;4097760;28;20035;-50
2021/11/27 01:05:36;;;;;;;5.32;5.13;;;7.30;99.90;;;;;;4105562;28;20114;-50
2021/11/27 01:07:39;;;;;;;4.97;4.88;;;7.20;99.90;;;;;;4109995;28;20049;-51
2021/11/27 01:09:42;;;;;;;5.38;5.03;;;7.20;99.90;;;;;;4107385;28;20038;-49
2021/11/27 01:11:46;;;;;;;;;;;7.20;99.90;;;;;;4108350;28;20054;-50
2021/11/27 01:13:55;;;;;;;5.63;5.47;;;7.20;99.90;;;;;;4100601;28;20448;-50
2021/11/27 01:15:57;;;;;;;6.57;6.47;;;7.20;99.90;;;;;;4106362;28;20082;-50
2021/11/27 01:18:00;;;;;;;;;;;7.30;99.90;;;;;;4105819;28;20050;-51
2021/11/27 01:20:04;;;;;;;;;;;7.20;99.90;;;;;;4110103;28;20366;-51
2021/11/27 01:22:11;;;;;;;5.53;5.40;;;7.20;99.90;;;;;;4105618;28;20049;-50
2021/11/27 01:24:15;;;;;;;6.38;6.15;;;7.30;99.90;;;;;;4106174;28;20050;-51
2021/11/27 01:26:17;;;;;;;6.20;6.10;;;7.20;99.90;;;;;;4107621;28;20046;-51
2021/11/27 01:28:21;;;;;;;5.90;5.78;;;7.20;99.90;;;;;;4109208;28;20133;-51
2021/11/27 01:30:23;;;;;;;6.80;6.60;;;7.20;99.90;;;;;;4106919;28;20035;-50
2021/11/27 01:32:25;;;;;;;6.60;6.50;;;7.20;99.90;;;;;;4111815;28;20075;-51
2021/11/27 01:34:27;;;;;;;5.95;5.75;;;7.20;99.90;;;;;;4105886;28;20035;-51
2021/11/27 01:36:29;;;;;;;8.40;8.13;;;7.20;99.90;;;;;;4111705;28;20069;-52
2021/11/27 01:38:33;;;;;;;7.57;7.47;;;7.30;99.90;;;;;;4103799;28;20109;-49
2021/11/27 01:40:36;;;;;;;8.73;8.05;;;7.30;99.90;;;;;;4112230;28;20127;-51
2021/11/27 01:42:38;;;;;;;7.85;7.43;;;7.30;99.90;;;;;;4105446;28;20644;-50
2021/11/27 01:44:41;;;;;;;7.95;7.72;;;7.30;99.90;;;;;;4096815;28;20731;-51
2021/11/27 01:46:43;;;;;;;6.43;6.20;;;7.30;99.90;;;;;;4105447;28;20059;-50
2021/11/27 01:48:45;;;;;;;7.88;7.32;;;7.30;99.90;;;;;;4111982;28;20089;-50
2021/11/27 01:50:55;;;;;;;8.18;7.95;;;7.40;99.90;;;;;;4105553;28;20086;-50
2021/11/27 01:52:59;;;;;;;5.80;5.70;;;7.30;99.90;;;;;;4106979;28;20555;-51
2021/11/27 01:55:01;;;;;;;5.90;5.70;;;7.30;99.90;;;;;;4105527;28;20105;-50
2021/11/27 01:57:04;;;;;;;6.90;6.80;;;7.30;99.90;;;;;;4112030;28;20093;-49
2021/11/27 01:59:08;;;;;;;7.25;7.05;;;7.30;99.90;;;;;;4104639;28;20630;-51
2021/11/27 02:04:10;;;;;;;7.05;6.60;;;7.20;99.90;;;;;;4113206;28;20027;-51
2021/11/27 02:06:14;;;;;;;7.07;6.78;;;7.20;99.90;;;;;;4108451;28;20039;-51
2021/11/27 02:08:17;;;;;;;5.43;5.13;;;7.20;99.90;;;;;;4113416;28;20085;-51
2021/11/27 02:10:20;;;;;;;9.00;6.97;;;7.20;99.90;;;;;;4109168;28;20039;-48
2021/11/27 02:12:22;;;;;;;7.03;6.88;;;7.30;99.90;;;;;;4113435;28;20074;-50
2021/11/27 02:14:24;;;;;;;6.70;6.60;;;7.30;99.90;;;;;;4110711;28;20027;-49
2021/11/27 02:16:27;;;;;;;6.38;6.15;;;7.30;99.90;;;;;;4100216;28;20156;-51
2021/11/27 02:18:29;;;;;;;7.78;7.57;;;7.30;99.90;;;;;;4105730;28;20118;-51
2021/11/27 02:20:40;;;;;;;7.40;6.95;;;7.40;99.90;;;;;;4104245;28;20059;-51
2021/11/27 02:22:42;;;;;;;5.78;5.47;;;7.40;99.90;;;;;;4108303;28;20130;-50
2021/11/27 02:24:45;;;;;;;5.75;5.32;;;7.50;99.90;;;;;;4113734;28;20079;-50
2021/11/27 02:26:48;;;;;;;5.65;5.43;;;7.50;99.90;;;;;;4107541;28;20042;-51
2021/11/27 02:28:54;;;;;;;5.88;5.60;;;7.50;99.90;;;;;;4110158;28;20114;-51
2021/11/27 02:30:56;;;;;;;5.00;4.63;;;7.60;99.90;;;;;;4107687;28;20130;-49
2021/11/27 02:33:00;;;;;;;4.93;4.72;;;7.60;99.90;;;;;;4099100;28;20097;-50
2021/11/27 02:35:02;;;;;;;5.15;4.72;;;7.60;99.90;;;;;;4105698;28;20607;-51
2021/11/27 02:37:06;;;;;;;6.60;6.00;;;7.60;99.90;;;;;;4113519;28;20137;-51
2021/11/27 02:39:26;;;;;;;6.93;4.50;;;7.70;99.90;;;;;;4110396;28;20029;-51
2021/11/27 02:41:28;;;;;;;5.05;4.93;;;7.70;99.90;;;;;;4113246;28;20507;-50
2021/11/27 02:43:31;;;;;;;6.80;4.22;;;7.70;99.90;;;;;;4108190;28;20085;-50
2021/11/27 02:45:33;;;;;;;4.95;4.72;;;7.70;99.90;;;;;;4111890;28;20043;-50
2021/11/27 02:47:35;;;;;;;4.30;4.22;;;7.60;99.90;;;;;;4108655;28;20045;-51
2021/11/27 02:49:37;;;;;;;3.80;3.60;;;7.60;99.90;;;;;;4110254;28;20125;-50
2021/11/27 02:51:39;;;;;;;7.20;4.70;;;7.60;99.90;;;;;;4108928;28;20046;-51
2021/11/27 02:53:42;;;;;;;6.78;6.22;;;7.50;99.90;;;;;;4113732;28;20074;-51
2021/11/27 02:55:45;;;;;;;5.05;4.35;;;7.50;99.90;;;;;;4109817;28;20070;-50
2021/11/27 02:57:47;;;;;;;;;;;7.50;99.90;;;;;;4114098;28;20042;-49
2021/11/27 02:59:49;;;;;;;5.88;5.45;;;7.40;99.90;;;;;;4108632;28;20605;-49
2021/11/27 03:01:53;;;;;;;7.25;6.90;;;7.40;99.90;;;;;;4102234;28;20126;-49
2021/11/27 03:03:56;;;;;;;9.00;8.07;;;7.40;99.90;;;;;;4108464;28;20534;-51
2021/11/27 03:05:58;;;;;;;9.43;8.65;;;7.40;99.90;;;;;;4112416;28;20038;-51
2021/11/27 03:08:00;;;;;;;8.05;7.85;;;7.40;99.90;;;;;;4108162;28;20095;-51
2021/11/27 03:10:05;;;;;;;7.85;7.55;;;7.40;99.90;;;;;;4113113;28;20660;-50
2021/11/27 03:12:08;;;;;;;8.15;7.82;;;7.40;99.90;;;;;;4108259;28;20565;-50
2021/11/27 03:14:11;;;;;;;9.07;8.55;;;7.50;99.90;;;;;;4112286;28;20050;-49
2021/11/27 03:19:06;;;;;;;7.68;7.38;;;7.40;99.90;;;;;;4153065;28;20479;-46
2021/11/27 03:21:08;;;;;;;5.95;5.75;;;7.40;99.90;;;;;;4144889;28;20046;-46
2021/11/27 03:23:11;;;;;;;7.65;7.43;;;7.40;99.90;;;;;;4145598;28;20060;-49
2021/11/27 03:25:14;;;;;;;7.45;7.15;;;7.40;99.90;;;;;;4145933;28;20406;-49
2021/11/27 03:27:17;;;;;;;6.63;6.13;;;7.30;99.90;;;;;;4146244;28;20112;-48
2021/11/27 03:29:19;;;;;;;8.90;6.63;;;7.40;99.90;;;;;;4145152;28;20038;-48
2021/11/27 03:31:21;;;;;;;6.72;6.20;;;7.40;99.90;;;;;;4145646;28;20115;-46
2021/11/27 03:33:23;;;;;;;7.93;4.63;;;7.30;99.90;;;;;;4146346;28;20058;-46
2021/11/27 03:35:26;;;;;;;6.32;5.63;;;7.40;99.90;;;;;;4145961;28;20046;-46
2021/11/27 03:37:28;;;;;;;7.43;6.13;;;7.30;99.90;;;;;;4145995;28;20034;-46
2021/11/27 03:39:30;;;;;;;6.40;5.95;;;7.30;99.90;;;;;;4145425;28;20073;-47
2021/11/27 03:41:33;;;;;;;6.70;6.18;;;7.30;99.90;;;;;;4144800;28;20046;-46
2021/11/27 03:43:38;;;;;;;7.30;7.18;;;7.30;99.90;;;;;;4145529;28;20288;-47
2021/11/27 03:45:40;;;;;;;7.32;7.22;;;7.20;99.90;;;;;;4145109;28;20037;-47
2021/11/27 03:48:29;;;;;;;7.72;7.32;;;7.20;99.90;;;;;;4145809;28;20032;-47
2021/11/27 03:50:39;;;;;;;10.07;9.35;;;7.20;99.90;;;;;;4144787;28;20064;-46
2021/11/27 03:52:42;;;;;;;7.63;7.10;;;7.10;99.90;;;;;;4146262;28;20671;-48
2021/11/27 03:55:01;;;;;;;8.18;7.88;;;7.10;99.90;;;;;;4136696;28;20034;-47
2021/11/27 03:57:04;;;;;;;9.38;8.65;;;7.10;99.90;;;;;;4145489;28;20072;-48
2021/11/27 03:59:24;;;;;;;11.30;11.00;;;7.10;99.90;;;;;;4145388;28;20030;-46
2021/11/27 04:01:28;;;;;;;11.98;11.50;;;7.10;99.90;;;;;;4145704;28;20129;-49
2021/11/27 04:03:51;;;;;;;11.32;10.77;;;7.10;99.90;;;;;;4143717;28;20088;-48
2021/11/27 04:05:58;;;;;;;10.73;10.05;;;7.20;99.90;;;;;;4145526;28;20034;-48
2021/11/27 04:08:00;;;;;;;8.90;8.70;;;7.10;99.90;;;;;;4145168;28;20088;-48
2021/11/27 04:10:03;;;;;;;8.05;7.68;;;7.20;99.90;;;;;;4145409;28;20104;-47
2021/11/27 04:12:06;;;;;;;10.25;9.52;;;7.20;99.90;;;;;;4145085;28;20048;-47
2021/11/27 04:14:08;;;;;;;;;;;7.20;99.90;;;;;;4131286;28;20088;-46
2021/11/27 04:16:10;;;;;;;7.30;6.77;;;7.40;99.90;;;;;;4158507;28;19936;-49
2021/11/27 04:18:13;;;;;;;5.82;5.45;;;7.60;99.90;;;;;;4144132;28;20054;-48
2021/11/27 04:20:15;;;;;;;5.68;5.32;;;7.80;99.90;;;;;;4144172;28;20034;-48
2021/11/27 04:22:18;;;;;;;5.95;5.55;;;7.60;99.90;;;;;;4144822;28;20037;-50
2021/11/27 04:24:20;;;;;;;6.97;6.45;;;7.50;99.90;;;;;;4143636;28;20083;-45
2021/11/27 04:26:22;;;;;;;6.82;6.32;;;7.40;99.90;;;;;;4144514;28;20033;-46
2021/11/27 04:28:25;;;;;;;8.05;7.80;;;7.30;99.90;;;;;;4143978;28;20034;-48
2021/11/27 04:30:29;;;;;;;9.57;8.73;;;7.30;99.90;;;;;;4145014;28;20076;-50
2021/11/27 04:32:32;;;;;;;10.48;10.07;;;7.30;99.90;;;;;;4143757;28;20044;-52
2021/11/27 04:34:34;;;;;;;10.75;9.88;;;7.30;99.90;;;;;;4144592;28;20038;-50
2021/11/27 04:36:36;;;;;;;11.00;10.60;;;7.30;99.90;;;;;;4144495;28;20433;-51
2021/11/27 04:38:39;;;;;;;;;;;7.30;99.90;;;;;;4145015;28;20060;-50
2021/11/27 04:40:41;;;;;;;9.90;8.48;;;7.30;99.90;;;;;;4142811;28;19922;-50
2021/11/27 04:42:44;;;;;;;7.82;7.57;;;7.30;99.90;;;;;;4144478;28;20044;-51
2021/11/27 04:44:46;;;;;;;8.55;8.07;;;7.40;99.90;;;;;;4143316;28;20038;-48
2021/11/27 04:46:48;;;;;;;7.97;7.22;;;7.30;99.90;;;;;;4144426;28;20045;-50
2021/11/27 04:48:50;;;;;;;6.57;6.03;;;7.30;99.90;;;;;;4144078;28;20409;-48
2021/11/27 04:50:53;;;;;;;5.93;5.68;;;7.30;99.90;;;;;;4144578;28;20042;-46
2021/11/27 04:52:55;;;;;;;5.65;5.50;;;7.30;99.90;;;;;;4144361;28;20076;-48
2021/11/27 04:54:57;;;;;;;8.15;7.65;;;7.20;99.90;;;;;;4143626;28;20030;-49
2021/11/27 04:56:59;;;;;;;6.97;6.63;;;7.20;99.90;;;;;;4144005;28;20042;-49
2021/11/27 04:59:02;;;;;;;9.68;9.20;;;7.10;99.90;;;;;;4144017;28;20100;-48
2021/11/27 05:01:04;;;;;;;9.80;9.15;;;7.10;99.90;;;;;;4144022;28;20034;-49
2021/11/27 05:03:07;;;;;;;8.88;8.43;;;7.10;99.90;;;;;;4144177;28;20044;-49
2021/11/27 05:05:09;;;;;;;12.75;9.02;;;7.10;99.90;;;;;;4144575;28;20030;-49
2021/11/27 05:07:12;;;;;;;8.75;8.18;;;7.00;99.90;;;;;;4143649;28;20328;-47
2021/11/27 05:09:14;;;;;;;9.75;9.27;;;7.00;99.90;;;;;;4143545;28;20041;-47
2021/11/27 05:11:16;;;;;;;9.27;8.93;;;7.00;99.90;;;;;;4143589;28;20080;-47
2021/11/27 05:13:18;;;;;;;9.52;8.98;;;7.00;99.90;;;;;;4144280;28;20046;-48
2021/11/27 05:15:21;;;;;;;10.32;9.57;;;7.10;99.90;;;;;;4143305;28;20382;-47
2021/11/27 05:17:23;;;;;;;10.05;9.25;;;7.00;99.90;;;;;;4143386;28;20037;-48
2021/11/27 05:19:25;;;;;;;11.13;10.13;;;7.00;99.90;;;;;;4141840;28;20489;-47
2021/11/27 05:21:27;;;;;;;10.15;9.57;;;7.00;99.90;;;;;;4143503;28;20042;-47
2021/11/27 05:23:29;;;;;;;9.75;9.05;;;7.10;99.90;;;;;;4143176;28;20037;-47
2021/11/27 05:25:50;;;;;;;11.32;10.55;;;7.10;99.90;;;;;;4143379;28;20038;-46
2021/11/27 05:27:52;;;;;;;11.27;10.57;;;7.10;99.90;;;;;;4143448;28;20038;-46
2021/11/27 05:29:55;;;;;;;12.15;11.30;;;7.10;99.90;;;;;;4144130;28;20383;-48
2021/11/27 05:32:04;;;;;;;11.75;10.95;;;7.10;99.90;;;;;;4143225;28;20096;-48
2021/11/27 05:36:08;;;;;;;8.50;7.75;;;7.20;99.90;;;;;;4142608;28;20065;-46
2021/11/27 05:38:10;;;;;;;11.52;10.95;;;7.20;99.90;;;;;;4143756;28;20046;-50
2021/11/27 05:40:13;;;;;;;6.40;6.15;;;7.30;99.90;;;;;;4142959;28;20042;-49
2021/11/27 05:42:16;;;;;;;8.00;7.38;;;7.30;99.90;;;;;;4144190;28;20482;-47
2021/11/27 05:44:18;;;;;;;10.68;10.13;;;7.30;99.90;;;;;;4143272;28;20633;-49
2021/11/27 05:46:21;;;;;;;9.18;8.45;;;7.30;99.90;;;;;;4143421;28;20569;-47
2021/11/27 05:48:23;;;;;;;9.25;8.80;;;7.40;99.90;;;;;;4143056;28;20046;-48
2021/11/27 05:50:26;;;;;;;9.55;8.88;;;7.40;99.90;;;;;;4144159;28;20038;-47
2021/11/27 05:52:28;;;;;;;10.52;9.48;;;7.40;99.90;;;;;;4143204;28;20125;-51
2021/11/27 05:54:30;;;;;;;8.52;8.23;;;7.40;99.90;;;;;;4144205;28;20617;-50
2021/11/27 05:56:32;;;;;;;9.85;8.82;;;7.40;99.90;;;;;;4143137;28;20045;-51
2021/11/27 05:58:34;;;;;;;6.97;6.60;;;7.40;99.90;;;;;;4143566;28;20092;-52
2021/11/27 06:00:36;;;;;;;9.73;8.98;;;7.30;99.90;;;;;;4142470;28;20650;-51
2021/11/27 06:02:38;;;;;;;8.52;7.97;;;7.30;99.90;;;;;;4144411;28;20076;-50
2021/11/27 06:04:40;;;;;;;8.32;7.80;;;7.30;99.90;;;;;;4142499;28;20038;-50
2021/11/27 06:06:42;;;;;;;11.00;10.00;;;7.40;99.90;;;;;;4144576;28;20065;-52
2021/11/27 06:08:45;;;;;;;9.38;8.73;;;7.40;99.90;;;;;;4142505;28;20061;-47
2021/11/27 06:10:47;;;;;;;;;;;7.40;99.90;;;;;;4144515;28;20042;-51
2021/11/27 06:12:50;;;;;;;7.75;7.28;;;7.40;99.90;;;;;;4142891;28;19932;-49
2021/11/27 06:14:52;;;;;;;10.48;7.03;;;7.40;99.90;;;;;;4143765;28;20082;-50
2021/11/27 06:16:54;;;;;;;7.93;6.63;;;7.40;99.90;;;;;;4142212;28;20882;-51
2021/11/27 06:18:56;;;;;;;10.95;8.75;;;7.40;99.90;;;;;;4143888;28;20041;-50
2021/11/27 06:20:58;;;;;;;8.13;7.47;;;7.50;99.90;;;;;;4142505;28;20088;-49
2021/11/27 06:23:00;;;;;;;;;;;7.50;99.90;;;;;;4144224;28;20061;-48
2021/11/27 06:25:04;;;;;;;11.27;8.32;;;7.50;99.90;;;;;;4142937;28;19925;-50
2021/11/27 06:27:06;;;;;;;10.23;9.32;;;7.40;99.90;;;;;;4143815;28;20034;-50
2021/11/27 06:29:08;;;;;;;6.50;6.30;;;7.40;99.90;;;;;;4143055;28;20038;-51
2021/11/27 06:31:10;;;;;;;8.70;7.78;;;7.40;99.90;;;;;;4143597;28;20073;-50
2021/11/27 06:33:12;;;;;;;7.38;6.80;;;7.50;99.90;;;;;;4142999;28;20844;-47
2021/11/27 06:35:15;;;;;;;4.60;4.40;;;7.40;99.90;;;;;;4143913;28;20644;-51
2021/11/27 06:37:18;;;;;;;3.78;3.47;;;7.50;99.90;;;;;;4142204;28;20037;-50
2021/11/27 06:39:40;;;;;;;6.25;5.60;;;7.50;99.90;;;;;;4143372;28;20061;-49
2021/11/27 06:41:42;;;;;;;6.05;5.65;;;7.50;99.90;;;;;;4142744;28;20532;-47
2021/11/27 06:43:45;;;;;;;5.85;5.43;;;7.50;99.90;;;;;;4143497;28;20034;-47
2021/11/27 06:45:47;;;;;;;7.63;6.97;;;7.40;99.90;;;;;;4142237;28;20066;-48
2021/11/27 06:47:49;;;;;;;6.55;6.07;;;7.50;99.90;;;;;;4143168;28;20066;-46
2021/11/27 06:49:51;;;;;;;6.30;5.78;;;7.70;99.90;;;;;;4145712;28;20044;-46
2021/11/27 06:51:53;;;;;;;5.03;4.63;;;7.60;99.90;;;;;;4146226;28;20033;-46
2021/11/27 06:53:56;;;;;;;6.88;5.95;;;7.50;99.90;;;;;;4146421;28;20126;-47
2021/11/27 06:55:58;;;;;;;9.82;4.63;;;7.90;99.90;;;;;;4146090;28;20478;-47
2021/11/27 06:58:01;;;;;;;5.43;3.78;;;8.40;99.90;;;;;;4145319;28;20052;-46
2021/11/27 07:00:05;;;;;;;7.32;4.22;;;8.20;99.90;;;;;;4146419;28;20042;-49
2021/11/27 07:02:07;;;;;;;4.38;3.95;;;8.10;99.90;;;;;;4145410;28;20041;-48
2021/11/27 07:04:09;;;;;;;4.68;4.10;;;7.90;99.90;;;;;;4146342;28;20493;-49
2021/11/27 07:06:12;;;;;;;6.35;4.25;;;8.20;99.90;;;;;;4144918;28;20053;-46
2021/11/27 07:08:14;;;;;;;5.15;3.33;;;8.40;99.90;;;;;;4145435;28;20040;-45
2021/11/27 07:10:16;;;;;;;4.53;3.70;;;8.60;99.90;;;;;;4146478;28;20084;-48
2021/11/27 07:12:18;;;;;;;5.88;3.58;;;8.60;99.90;;;;;;4145652;28;20413;-48
2021/11/27 07:14:20;;;;;;;4.43;4.13;;;8.40;99.90;;;;;;4146076;28;20091;-47
2021/11/27 07:16:22;;;;;;;4.10;3.90;;;8.30;99.90;;;;;;4145023;28;20122;-45
2021/11/27 07:18:24;;;;;;;4.30;3.25;;;8.20;99.90;;;;;;4145238;28;20080;-49
2021/11/27 07:20:27;;;;;;;7.15;2.58;;;8.00;99.90;;;;;;4145621;28;20040;-46
2021/11/27 07:22:48;;;;;;;6.07;3.25;;;8.10;99.90;;;;;;4145180;28;20045;-48
2021/11/27 07:25:08;;;;;;;3.63;3.45;;;8.10;99.90;;;;;;4145307;28;20026;-46
2021/11/27 07:27:41;;;;;;;2.53;2.42;;;8.10;99.90;;;;;;4145471;28;20037;-46
2021/11/27 07:29:43;;;;;;;1.90;1.80;;;8.20;99.90;;;;;;4144493;28;20342;-48
2021/11/27 07:31:47;;;;;;;3.58;2.45;;;8.30;99.90;;;;;;4144057;28;20052;-47
2021/11/27 07:33:49;;;;;;;3.58;3.47;;;8.40;99.90;;;;;;4142608;28;20054;-47
2021/11/27 07:35:52;;;;;;;4.32;2.80;;;8.40;99.90;;;;;;4145737;28;20104;-47
2021/11/27 07:37:54;;;;;;;4.25;2.97;;;8.40;99.90;;;;;;4144891;28;20037;-46
2021/11/27 07:39:57;;;;;;;6.60;2.90;;;8.40;99.90;;;;;;4145874;28;20051;-47
2021/11/27 07:41:59;;;;;;;4.18;3.78;;;8.50;99.90;;;;;;4144831;28;20034;-47
2021/11/27 07:44:05;;;;;;;5.45;3.47;;;8.50;99.90;;;;;;4146064;28;20050;-46
2021/11/27 07:46:07;;;;;;;2.50;2.40;;;8.60;99.90;;;;;;4145218;28;20033;-46
2021/11/27 07:48:09;;;;;;;5.57;2.35;;;8.60;99.90;;;;;;4145894;28;20034;-47
2021/11/27 07:50:11;;;;;;;2.83;2.72;;;8.80;99.90;;;;;;4144870;28;20029;-49
2021/11/27 07:52:14;;;;;;;2.20;2.20;;;8.80;99.90;;;;;;4144247;28;20042;-46
2021/11/27 07:54:16;;;;;;;3.70;2.70;;;8.70;99.90;;;;;;4145200;28;20041;-46
2021/11/27 07:56:18;;;;;;;4.07;2.35;;;8.80;99.90;;;;;;4144932;28;20038;-45
2021/11/27 07:58:20;;;;;;;2.65;2.42;;;8.80;99.90;;;;;;4145168;28;20087;-46
2021/11/27 08:00:23;;;;;;;2.50;2.40;;;8.80;99.90;;;;;;4144590;28;20045;-46
2021/11/27 08:02:25;;;;;;;4.65;3.55;;;8.80;99.90;;;;;;4143832;28;20063;-46
2021/11/27 08:04:28;;;;;;;2.70;2.50;;;8.90;99.90;;;;;;4145356;28;20117;-45
2021/11/27 08:06:30;;;;;;;5.90;2.45;;;8.80;99.90;;;;;;4143515;28;20041;-47
2021/11/27 08:08:32;;;;;;;6.47;2.78;;;8.80;99.90;;;;;;4142033;28;20834;-46
2021/11/27 08:10:34;;;;;;;3.22;2.90;;;8.80;99.90;;;;;;4144794;28;20518;-46
2021/11/27 08:12:38;;;;;;;3.22;3.03;;;8.90;99.90;;;;;;4145057;28;20046;-45
2021/11/27 08:14:41;;;;;;;3.33;3.05;;;8.90;99.90;;;;;;4144850;28;20065;-48
2021/11/27 08:16:43;;;;;;;2.63;2.42;;;9.10;99.90;;;;;;4144879;28;20708;-47
2021/11/27 08:18:46;;;;;;;7.05;3.08;;;9.00;99.90;;;;;;4143639;28;20461;-45
2021/11/27 08:20:51;;;;;;;;;;;9.00;99.90;;;;;;4144888;28;20569;-46
2021/11/27 08:23:13;;;;;;;2.20;2.10;;;9.10;99.90;;;;;;4142423;28;19937;-45
2021/11/27 08:25:16;;;;;;;10.15;3.13;;;9.30;99.90;;;;;;4144191;28;20034;-45
2021/11/27 08:27:19;;;;;;;4.78;2.00;;;9.20;99.90;;;;;;4145076;28;20116;-45
2021/11/27 08:29:21;;;;;;;5.63;2.17;;;9.20;99.90;;;;;;4144400;28;20046;-45
2021/11/27 08:31:23;;;;;;;3.42;2.13;;;9.40;99.90;;;;;;4145031;28;20076;-46
2021/11/27 08:33:26;;;;;;;4.65;1.80;;;9.40;99.90;;;;;;4144375;28;20501;-47
2021/11/27 08:35:28;;;;;;;;;;;9.40;99.90;;;;;;4144285;28;20350;-46
2021/11/27 08:37:30;;;;;;;2.07;1.97;;;9.40;99.90;;;;;;4144578;28;19979;-47
2021/11/27 08:39:32;;;;;;;2.47;2.00;;;9.30;99.90;;;;;;4144773;28;20100;-45
2021/11/27 08:41:35;;;;;;;5.88;2.72;;;9.40;99.90;;;;;;4143872;28;20060;-46
2021/11/27 08:43:37;;;;;;;3.70;3.35;;;9.40;99.90;;;;;;4144451;28;20108;-45
2021/11/27 08:45:40;;;;;;;5.60;3.38;;;9.50;99.90;;;;;;4140533;28;20065;-45
2021/11/27 08:47:43;;;;;;;3.80;2.03;;;9.60;99.90;;;;;;4157369;22;20038;-90
2021/11/27 08:49:47;;;;;;;4.72;2.30;;;9.50;99.90;;;;;;4159426;28;20038;-90
2021/11/27 08:51:51;;;;;;;5.70;3.42;;;9.40;99.90;;;;;;4128441;28;20125;-90
2021/11/27 08:53:53;;;;;;;2.25;2.13;;;9.40;99.90;;;;;;4144116;28;20493;-91
2021/11/27 08:55:56;;;;;;;2.53;2.42;;;9.10;99.90;;;;;;4128404;28;20054;-90
2021/11/27 08:57:59;;;;;;;3.75;3.42;;;9.20;99.90;;;;;;4146158;28;20057;-89
2021/11/27 09:00:04;;;;;;;5.00;3.80;;;9.10;99.90;;;;;;4144610;28;20432;-90
2021/11/27 09:02:06;;;;;;;5.78;2.30;;;9.20;99.90;;;;;;4143326;28;20042;-91
2021/11/27 09:04:09;;;;;;;4.13;2.00;;;9.20;99.90;;;;;;4163277;28;20120;-90
2021/11/27 09:06:11;;;;;;;6.85;2.53;;;9.20;99.90;;;;;;4140470;28;20045;-90
2021/11/27 09:08:13;;;;;;;9.18;2.50;;;9.10;99.90;;;;;;4161988;28;20045;-90
2021/11/27 09:10:16;;;;;;;10.23;6.30;;;9.10;99.90;;;;;;4144133;28;20068;-90
2021/11/27 09:12:21;;;;;;;8.55;4.00;;;9.10;99.90;;;;;;4159448;28;20046;-89
2021/11/27 09:14:24;;;;;;;3.30;2.67;;;9.10;99.90;;;;;;4142158;28;20042;-90
2021/11/27 09:16:26;;;;;;;10.15;6.68;;;9.00;99.90;;;;;;4125732;28;20049;-86
2021/11/27 09:18:36;;;;;;;6.82;5.80;;;9.10;99.90;;;;;;4141405;28;20394;-86
2021/11/27 09:20:41;;;;;;;5.55;2.45;;;9.10;99.90;;;;;;4127372;28;20049;-86
2021/11/27 09:22:43;;;;;;;5.78;4.03;;;9.20;99.90;;;;;;4142988;28;21512;-86
2021/11/27 09:24:45;;;;;;;2.88;2.60;;;9.20;99.90;;;;;;4144447;28;20420;-86
2021/11/27 09:26:48;;;;;;;2.97;2.65;;;9.20;99.90;;;;;;4161424;28;20552;-86
2021/11/27 09:28:50;;;;;;;8.52;4.22;;;9.20;99.90;;;;;;4125431;28;20540;-86
2021/11/27 09:30:54;;;;;;;3.58;3.38;;;9.20;99.90;;;;;;4143457;28;20046;-86
2021/11/27 09:32:57;;;;;;;4.07;3.70;;;9.10;99.90;;;;;;4145517;28;20063;-86
2021/11/27 09:35:02;;;;;;;4.40;2.28;;;9.20;99.90;;;;;;4141716;28;20042;-86
2021/11/27 09:37:06;;;;;;;6.75;3.38;;;9.10;99.90;;;;;;4159269;28;20119;-86
2021/11/27 09:39:10;;;;;;;3.97;2.70;;;9.10;99.90;;;;;;4159213;28;20095;-86
2021/11/27 09:41:28;;;;;;;3.95;3.58;;;9.20;99.90;;;;;;4159762;28;20034;-85
2021/11/27 09:43:31;;;;;;;3.65;3.53;;;9.20;99.90;;;;;;4145403;28;20092;-85
2021/11/27 09:45:35;;;;;;;;;;;9.10;99.90;;;;;;4153687;28;20287;-86
2021/11/27 09:47:37;;;;;;;6.25;4.28;;;9.10;99.90;;;;;;4142409;28;19920;-85
2021/11/27 09:49:42;;;;;;;4.88;3.47;;;9.10;99.90;;;;;;4138830;28;20092;-85
2021/11/27 09:51:45;;;;;;;3.30;3.00;;;9.20;99.90;;;;;;4140691;28;20465;-86
2021/11/27 09:53:48;;;;;;;8.63;3.92;;;9.20;99.90;;;;;;4126919;28;20046;-86
2021/11/27 09:55:51;;;;;;;4.78;4.47;;;9.20;99.90;;;;;;4126452;28;20577;-86
2021/11/27 09:57:53;;;;;;;3.28;2.95;;;9.20;99.90;;;;;;4150382;28;20042;-86
2021/11/27 09:59:56;;;;;;;3.45;3.22;;;9.20;99.90;;;;;;4145571;28;20428;-86
2021/11/27 10:02:01;;;;;;;5.15;3.08;;;9.20;99.90;;;;;;4127924;28;20034;-87
2021/11/27 10:04:08;;;;;;;4.07;3.65;;;9.30;99.90;;;;;;4125743;28;20039;-85
2021/11/27 10:06:10;;;;;;;6.68;2.85;;;9.50;99.90;;;;;;4127389;28;20461;-86
2021/11/27 10:08:13;;;;;;;6.03;2.67;;;9.50;99.90;;;;;;4128958;28;20039;-86
2021/11/27 10:10:18;;;;;;;11.05;3.33;;;9.40;99.90;;;;;;4122983;28;20077;-85
2021/11/27 10:12:21;;;;;;;5.40;5.07;;;9.30;99.90;;;;;;4128263;28;20553;-86
2021/11/27 10:14:23;;;;;;;2.22;2.05;;;9.30;99.90;;;;;;4133883;28;20065;-86
2021/11/27 10:16:26;;;;;;;2.58;2.47;;;9.30;99.90;;;;;;4127331;28;20043;-86
2021/11/27 10:18:28;;;;;;;2.35;2.25;;;9.30;99.90;;;;;;4139920;28;20601;-86
2021/11/27 10:20:34;;;;;;;5.13;4.35;;;9.30;99.90;;;;;;4128609;28;20698;-85
2021/11/27 10:22:37;;;;;;;5.53;5.03;;;9.30;99.90;;;;;;4142638;28;20041;-86
2021/11/27 10:24:41;;;;;;;4.93;3.63;;;9.30;99.90;;;;;;4145515;28;20414;-86
2021/11/27 10:26:45;;;;;;;3.38;3.17;;;9.40;99.90;;;;;;4128690;28;20652;-86
2021/11/27 10:28:47;;;;;;;2.67;2.55;;;9.50;99.90;;;;;;4130874;28;20398;-86
2021/11/27 10:31:03;;;;;;;3.13;2.83;;;9.60;99.90;;;;;;4145268;28;20140;-85
2021/11/27 10:33:06;;;;;;;3.13;2.92;;;9.80;99.90;;;;;;4144521;28;20042;-85
2021/11/27 10:35:11;;;;;;;5.72;5.15;;;9.80;99.90;;;;;;4125007;28;20074;-86
2021/11/27 10:37:26;;;;;;;2.67;2.47;;;9.80;99.90;;;;;;4111025;28;21802;-85
2021/11/27 10:39:28;;;;;;;7.47;3.65;;;9.90;99.90;;;;;;4127440;28;20041;-85
2021/11/27 10:41:36;;;;;;;2.53;1.58;;;9.80;99.90;;;;;;4143852;28;20042;-86
2021/11/27 10:43:59;;;;;;;10.18;4.90;;;9.90;99.90;;;;;;4129401;28;20042;-85
2021/11/27 10:46:02;;;;;;;10.07;6.13;;;9.80;99.90;;;;;;4127084;28;20042;-88
2021/11/27 10:48:18;;;;;;;4.72;1.55;;;9.80;99.90;;;;;;4129063;28;20060;-86
2021/11/27 10:50:24;;;;;;;3.15;2.90;;;9.90;99.90;;;;;;4126663;28;20115;-83
2021/11/27 10:52:28;;;;;;;4.57;2.15;;;9.90;99.90;;;;;;4111896;28;20129;-83
2021/11/27 10:55:13;;;;;;;8.63;4.30;;;10.00;99.90;;;;;;4122350;28;20125;-85
2021/11/27 10:57:32;;;;;;;3.80;2.25;;;10.00;99.90;;;;;;4109879;28;20141;-85
2021/11/27 10:59:43;;;;;;;4.45;1.60;;;9.90;99.90;;;;;;4095566;28;20058;-85
2021/11/27 11:01:58;;;;;;;6.43;1.30;;;9.80;99.90;;;;;;4113146;28;20047;-85
2021/11/27 11:04:17;;;;;;;2.75;1.38;;;9.50;99.90;;;;;;4094231;28;20047;-85
2021/11/27 11:06:23;;;;;;;1.80;1.50;;;9.40;99.90;;;;;;4113985;28;20043;-85